Hahnville, Louisiana
Current Conditions -  °F | °C
As of 6:53 PM on Monday 24 Nov 2014 (Local Time) from KMSY Reporting Station
Broken Clouds Broken Clouds  
Wind Chill: 61°   Ceiling: 25000
Heat Index: 61°   Visibility: 10mi
Dew Point: 46°   Wind: 10mph
Humidity: 58%   Direction: 350°N
Pressure: 29.99"   Gusts: NA
Location:  29.98°N, 90.41°W
Report Text: KMSY 250053Z 35009KT 10SM BKN250 16/08 A2999 RMK AO2 SLP158 T01610078
Loading
Personal Weather Stations






























Interactive Weather Map New forecast layout! Learn more

10-Day Weather Forecast

Advertisements
Track Severe Weather on mobile